Quick Links (Output Below):   Max & Min Temps   /   Climate Reports   /   Zone Forecasts
River Forecasts   /   Forestry Forecasts   /   Aviation Forecasts   /   Radars   /   Features

Terminal Aerodrome Forecast (Little Rock)

Pick a Site:
Arkadelphia | El Dorado | Fayetteville | Fort Smith | Harrison | Highfill | Hot Springs | Jonesboro
Little Rock | Monticello | Mountain Home | Pine Bluff | Texarkana
 Forecast 

KLIT 271721Z 2718/2818 34005KT P6SM SKC
     FM281600 16005KT P6SM SKC=


 Latest METARs (Observations) 
How to Decode METARs
19Z KLIT 271853Z 03009KT 10SM CLR 18/M02 A3013 RMK AO2 SLP205
         T01831017
         
18Z KLIT 271753Z 34007KT 10SM CLR 18/M02 A3015 RMK AO2 SLP213
         T01781017 10178 20039 50002
         
17Z KLIT 271653Z VRB06KT 10SM CLR 16/01 A3017 RMK AO2 SLP218
         T01610006
         
16Z KLIT 271553Z 34011KT 10SM CLR 15/01 A3016 RMK AO2 SLP216
         T01500011
         
15Z KLIT 271453Z 34006KT 10SM CLR 12/03 A3015 RMK AO2 SLP211 T01170028
         51026
         
14Z KLIT 271353Z 33005KT 10SM CLR 07/02 A3013 RMK AO2 SLP205
         T00670022
         
13Z KLIT 271253Z 33005KT 10SM CLR 05/02 A3010 RMK AO2 SLP196
         T00500017
         
12Z KLIT 271153Z 32005KT 10SM CLR 06/01 A3007 RMK AO2 SLP185 T00560011
         10083 20039 53015
         
11Z KLIT 271053Z 30007KT 10SM CLR 05/01 A3005 RMK AO2 SLP178
         T00500011
         
10Z KLIT 270953Z 27005KT 10SM CLR 05/01 A3003 RMK AO2 SLP172
         T00500006
         
***** Today's Observations (Above) *****


Back to Main Page
http://www.srh.noaa.gov/lzk/qfcst.php

USA.gov is the U.S. government's official web portal to all federal, state and local government web resources and services.